sensor_id;sensor_type;location;lat;lon;timestamp;temperature;humidity
11700;DHT22;5906;51.660;6.674;2022-08-19T00:01:42;17.60;99.90
11700;DHT22;5906;51.660;6.674;2022-08-19T00:04:11;17.50;99.90
11700;DHT22;5906;51.660;6.674;2022-08-19T00:06:39;17.50;99.90
11700;DHT22;5906;51.660;6.674;2022-08-19T00:09:09;17.50;99.90
11700;DHT22;5906;51.660;6.674;2022-08-19T00:11:36;17.50;99.90
11700;DHT22;5906;51.660;6.674;2022-08-19T00:14:08;17.50;99.90
11700;DHT22;5906;51.660;6.674;2022-08-19T00:16:38;17.50;99.90
11700;DHT22;5906;51.660;6.674;2022-08-19T00:19:05;17.40;99.90
11700;DHT22;5906;51.660;6.674;2022-08-19T00:21:32;17.50;99.90
11700;DHT22;5906;51.660;6.674;2022-08-19T00:23:59;17.40;99.90
11700;DHT22;5906;51.660;6.674;2022-08-19T00:26:27;17.40;99.90
11700;DHT22;5906;51.660;6.674;2022-08-19T00:28:55;17.30;99.90
11700;DHT22;5906;51.660;6.674;2022-08-19T00:31:22;17.30;99.90
11700;DHT22;5906;51.660;6.674;2022-08-19T00:33:48;17.20;99.90
11700;DHT22;5906;51.660;6.674;2022-08-19T00:36:17;17.20;99.90
11700;DHT22;5906;51.660;6.674;2022-08-19T00:38:44;17.10;99.90
11700;DHT22;5906;51.660;6.674;2022-08-19T00:41:17;17.10;99.90
11700;DHT22;5906;51.660;6.674;2022-08-19T00:44:21;17.10;99.90
11700;DHT22;5906;51.660;6.674;2022-08-19T00:46:53;17.10;99.90
11700;DHT22;5906;51.660;6.674;2022-08-19T00:52:25;17.00;99.90
11700;DHT22;5906;51.660;6.674;2022-08-19T00:54:53;16.90;99.90
11700;DHT22;5906;51.660;6.674;2022-08-19T00:57:25;16.90;99.90
11700;DHT22;5906;51.660;6.674;2022-08-19T00:59:54;16.90;99.90
11700;DHT22;5906;51.660;6.674;2022-08-19T01:02:30;16.80;99.90
11700;DHT22;5906;51.660;6.674;2022-08-19T01:05:00;16.80;99.90
11700;DHT22;5906;51.660;6.674;2022-08-19T01:07:27;16.80;99.90
11700;DHT22;5906;51.660;6.674;2022-08-19T01:10:02;16.80;99.90
11700;DHT22;5906;51.660;6.674;2022-08-19T01:12:29;16.70;99.90
11700;DHT22;5906;51.660;6.674;2022-08-19T01:14:57;16.70;99.90
11700;DHT22;5906;51.660;6.674;2022-08-19T01:17:26;16.70;99.90
11700;DHT22;5906;51.660;6.674;2022-08-19T01:19:53;16.70;99.90
11700;DHT22;5906;51.660;6.674;2022-08-19T01:22:29;16.70;99.90
11700;DHT22;5906;51.660;6.674;2022-08-19T01:25:00;16.60;99.90
11700;DHT22;5906;51.660;6.674;2022-08-19T01:27:40;16.50;99.90
11700;DHT22;5906;51.660;6.674;2022-08-19T01:30:15;16.50;99.90
11700;DHT22;5906;51.660;6.674;2022-08-19T01:32:43;16.50;99.90
11700;DHT22;5906;51.660;6.674;2022-08-19T01:35:11;16.50;99.90
11700;DHT22;5906;51.660;6.674;2022-08-19T01:40:21;16.50;99.90
11700;DHT22;5906;51.660;6.674;2022-08-19T01:42:49;16.40;99.90
11700;DHT22;5906;51.660;6.674;2022-08-19T01:45:17;16.40;99.90
11700;DHT22;5906;51.660;6.674;2022-08-19T01:47:43;16.30;99.90
11700;DHT22;5906;51.660;6.674;2022-08-19T01:50:23;16.30;99.90
11700;DHT22;5906;51.660;6.674;2022-08-19T01:52:50;16.30;99.90
11700;DHT22;5906;51.660;6.674;2022-08-19T01:55:33;16.30;99.90
11700;DHT22;5906;51.660;6.674;2022-08-19T01:58:15;16.30;99.90
11700;DHT22;5906;51.660;6.674;2022-08-19T02:00:43;16.20;99.90
11700;DHT22;5906;51.660;6.674;2022-08-19T02:03:11;16.20;99.90
11700;DHT22;5906;51.660;6.674;2022-08-19T02:05:39;16.20;99.90
11700;DHT22;5906;51.660;6.674;2022-08-19T02:08:06;16.10;99.90
11700;DHT22;5906;51.660;6.674;2022-08-19T02:10:33;16.10;99.90
11700;DHT22;5906;51.660;6.674;2022-08-19T02:13:00;16.20;99.90
11700;DHT22;5906;51.660;6.674;2022-08-19T02:15:26;16.20;99.90
11700;DHT22;5906;51.660;6.674;2022-08-19T02:17:53;16.10;99.90
11700;DHT22;5906;51.660;6.674;2022-08-19T02:20:20;16.10;99.90
11700;DHT22;5906;51.660;6.674;2022-08-19T02:22:47;16.10;99.90
11700;DHT22;5906;51.660;6.674;2022-08-19T02:25:14;16.00;99.90
11700;DHT22;5906;51.660;6.674;2022-08-19T02:27:42;16.00;99.90
11700;DHT22;5906;51.660;6.674;2022-08-19T02:30:13;16.00;99.90
11700;DHT22;5906;51.660;6.674;2022-08-19T02:32:40;16.00;99.90
11700;DHT22;5906;51.660;6.674;2022-08-19T02:35:20;16.00;99.90
11700;DHT22;5906;51.660;6.674;2022-08-19T02:37:47;16.00;99.90
11700;DHT22;5906;51.660;6.674;2022-08-19T02:40:34;15.90;99.90
11700;DHT22;5906;51.660;6.674;2022-08-19T02:43:02;15.90;99.90
11700;DHT22;5906;51.660;6.674;2022-08-19T02:45:36;15.80;99.90
11700;DHT22;5906;51.660;6.674;2022-08-19T02:48:07;15.80;99.90
11700;DHT22;5906;51.660;6.674;2022-08-19T02:50:48;15.80;99.90
11700;DHT22;5906;51.660;6.674;2022-08-19T02:53:19;15.80;99.90
11700;DHT22;5906;51.660;6.674;2022-08-19T02:55:46;15.70;99.90
11700;DHT22;5906;51.660;6.674;2022-08-19T02:58:14;15.70;99.90
11700;DHT22;5906;51.660;6.674;2022-08-19T03:00:47;15.70;99.90
11700;DHT22;5906;51.660;6.674;2022-08-19T03:03:17;15.70;99.90
11700;DHT22;5906;51.660;6.674;2022-08-19T03:05:44;15.70;99.90
11700;DHT22;5906;51.660;6.674;2022-08-19T03:08:23;15.70;99.90
11700;DHT22;5906;51.660;6.674;2022-08-19T03:10:51;15.70;99.90
11700;DHT22;5906;51.660;6.674;2022-08-19T03:13:20;15.70;99.90
11700;DHT22;5906;51.660;6.674;2022-08-19T03:15:48;15.70;99.90
11700;DHT22;5906;51.660;6.674;2022-08-19T03:18:15;15.70;99.90
11700;DHT22;5906;51.660;6.674;2022-08-19T03:20:46;15.70;99.90
11700;DHT22;5906;51.660;6.674;2022-08-19T03:23:14;15.70;99.90
11700;DHT22;5906;51.660;6.674;2022-08-19T03:25:45;15.70;99.90
11700;DHT22;5906;51.660;6.674;2022-08-19T03:28:23;15.70;99.90
11700;DHT22;5906;51.660;6.674;2022-08-19T03:31:03;15.80;99.90
11700;DHT22;5906;51.660;6.674;2022-08-19T03:33:50;15.80;99.90
11700;DHT22;5906;51.660;6.674;2022-08-19T03:36:20;15.80;99.90
11700;DHT22;5906;51.660;6.674;2022-08-19T03:38:50;15.90;99.90
11700;DHT22;5906;51.660;6.674;2022-08-19T03:41:28;15.90;99.90
11700;DHT22;5906;51.660;6.674;2022-08-19T03:44:16;15.90;99.90
11700;DHT22;5906;51.660;6.674;2022-08-19T03:46:51;15.90;99.90
11700;DHT22;5906;51.660;6.674;2022-08-19T03:49:20;15.80;99.90
11700;DHT22;5906;51.660;6.674;2022-08-19T03:51:54;15.80;99.90
11700;DHT22;5906;51.660;6.674;2022-08-19T03:54:22;15.80;99.90
11700;DHT22;5906;51.660;6.674;2022-08-19T03:56:51;15.70;99.90
11700;DHT22;5906;51.660;6.674;2022-08-19T03:59:24;15.70;99.90
11700;DHT22;5906;51.660;6.674;2022-08-19T04:01:57;15.70;99.90
11700;DHT22;5906;51.660;6.674;2022-08-19T04:04:24;15.70;99.90
11700;DHT22;5906;51.660;6.674;2022-08-19T04:06:56;15.70;99.90
11700;DHT22;5906;51.660;6.674;2022-08-19T04:09:23;15.70;99.90
11700;DHT22;5906;51.660;6.674;2022-08-19T04:11:52;15.70;99.90
11700;DHT22;5906;51.660;6.674;2022-08-19T04:14:26;15.70;99.90
11700;DHT22;5906;51.660;6.674;2022-08-19T04:16:58;15.70;99.90
11700;DHT22;5906;51.660;6.674;2022-08-19T04:19:25;15.70;99.90
11700;DHT22;5906;51.660;6.674;2022-08-19T04:21:54;15.60;99.90
11700;DHT22;5906;51.660;6.674;2022-08-19T04:24:21;15.60;99.90
11700;DHT22;5906;51.660;6.674;2022-08-19T04:26:49;15.60;99.90
11700;DHT22;5906;51.660;6.674;2022-08-19T04:29:19;15.60;99.90
11700;DHT22;5906;51.660;6.674;2022-08-19T04:31:48;15.60;99.90
11700;DHT22;5906;51.660;6.674;2022-08-19T04:34:18;15.50;99.90
11700;DHT22;5906;51.660;6.674;2022-08-19T04:36:49;15.50;99.90
11700;DHT22;5906;51.660;6.674;2022-08-19T04:39:20;15.50;99.90
11700;DHT22;5906;51.660;6.674;2022-08-19T04:41:47;15.40;99.90
11700;DHT22;5906;51.660;6.674;2022-08-19T04:44:34;15.40;99.90
11700;DHT22;5906;51.660;6.674;2022-08-19T04:47:10;15.40;99.90
11700;DHT22;5906;51.660;6.674;2022-08-19T04:49:37;15.50;99.90
11700;DHT22;5906;51.660;6.674;2022-08-19T04:52:04;15.50;99.90
11700;DHT22;5906;51.660;6.674;2022-08-19T04:54:30;15.50;99.90
11700;DHT22;5906;51.660;6.674;2022-08-19T04:57:08;15.50;99.90
11700;DHT22;5906;51.660;6.674;2022-08-19T04:59:38;15.50;99.90
11700;DHT22;5906;51.660;6.674;2022-08-19T05:02:09;15.50;99.90
11700;DHT22;5906;51.660;6.674;2022-08-19T05:04:36;15.50;99.90
11700;DHT22;5906;51.660;6.674;2022-08-19T05:07:07;15.60;99.90
11700;DHT22;5906;51.660;6.674;2022-08-19T05:09:34;15.60;99.90
11700;DHT22;5906;51.660;6.674;2022-08-19T05:12:21;15.60;99.90
11700;DHT22;5906;51.660;6.674;2022-08-19T05:14:54;15.70;99.90
11700;DHT22;5906;51.660;6.674;2022-08-19T05:17:23;15.70;99.90
11700;DHT22;5906;51.660;6.674;2022-08-19T05:19:54;15.80;99.90
11700;DHT22;5906;51.660;6.674;2022-08-19T05:22:40;15.80;99.90
11700;DHT22;5906;51.660;6.674;2022-08-19T05:25:09;15.90;99.90
11700;DHT22;5906;51.660;6.674;2022-08-19T05:27:41;15.90;99.90
11700;DHT22;5906;51.660;6.674;2022-08-19T05:30:10;16.00;99.90
11700;DHT22;5906;51.660;6.674;2022-08-19T05:32:37;16.10;99.90
11700;DHT22;5906;51.660;6.674;2022-08-19T05:35:05;16.20;99.90
11700;DHT22;5906;51.660;6.674;2022-08-19T05:37:33;16.30;99.90
11700;DHT22;5906;51.660;6.674;2022-08-19T05:40:00;16.40;99.90
11700;DHT22;5906;51.660;6.674;2022-08-19T05:42:27;16.50;99.90
11700;DHT22;5906;51.660;6.674;2022-08-19T05:44:53;16.50;99.90
11700;DHT22;5906;51.660;6.674;2022-08-19T05:47:20;16.50;99.90
11700;DHT22;5906;51.660;6.674;2022-08-19T05:49:48;16.50;99.90
11700;DHT22;5906;51.660;6.674;2022-08-19T05:52:16;16.50;99.90
11700;DHT22;5906;51.660;6.674;2022-08-19T05:54:45;16.70;99.90
11700;DHT22;5906;51.660;6.674;2022-08-19T05:57:18;16.80;99.90
11700;DHT22;5906;51.660;6.674;2022-08-19T05:59:45;16.90;99.90
11700;DHT22;5906;51.660;6.674;2022-08-19T06:02:28;17.00;99.90
11700;DHT22;5906;51.660;6.674;2022-08-19T06:04:57;17.20;99.90
11700;DHT22;5906;51.660;6.674;2022-08-19T06:07:24;17.30;99.90
11700;DHT22;5906;51.660;6.674;2022-08-19T06:09:51;17.30;99.90
11700;DHT22;5906;51.660;6.674;2022-08-19T06:12:30;17.50;99.90
11700;DHT22;5906;51.660;6.674;2022-08-19T06:15:07;17.70;99.90
11700;DHT22;5906;51.660;6.674;2022-08-19T06:17:35;17.80;99.90
11700;DHT22;5906;51.660;6.674;2022-08-19T06:20:07;17.90;99.90
11700;DHT22;5906;51.660;6.674;2022-08-19T06:22:43;17.90;99.90
11700;DHT22;5906;51.660;6.674;2022-08-19T06:25:11;18.10;99.90
11700;DHT22;5906;51.660;6.674;2022-08-19T06:27:39;18.20;99.90
11700;DHT22;5906;51.660;6.674;2022-08-19T06:30:25;18.40;99.90
11700;DHT22;5906;51.660;6.674;2022-08-19T06:32:52;18.60;99.90
11700;DHT22;5906;51.660;6.674;2022-08-19T06:35:19;18.80;99.90
11700;DHT22;5906;51.660;6.674;2022-08-19T06:37:47;19.00;99.90
11700;DHT22;5906;51.660;6.674;2022-08-19T06:40:13;19.20;99.90
11700;DHT22;5906;51.660;6.674;2022-08-19T06:42:40;19.40;99.90
11700;DHT22;5906;51.660;6.674;2022-08-19T06:45:21;19.60;99.90
11700;DHT22;5906;51.660;6.674;2022-08-19T06:47:59;19.90;99.90
11700;DHT22;5906;51.660;6.674;2022-08-19T06:50:27;20.10;99.90
11700;DHT22;5906;51.660;6.674;2022-08-19T06:52:53;20.30;99.90
11700;DHT22;5906;51.660;6.674;2022-08-19T06:55:21;20.40;99.90
11700;DHT22;5906;51.660;6.674;2022-08-19T06:57:48;20.70;99.90
11700;DHT22;5906;51.660;6.674;2022-08-19T07:00:15;20.80;99.90
11700;DHT22;5906;51.660;6.674;2022-08-19T07:02:43;21.10;99.90
11700;DHT22;5906;51.660;6.674;2022-08-19T07:05:21;21.20;99.90
11700;DHT22;5906;51.660;6.674;2022-08-19T07:07:48;21.50;99.90
11700;DHT22;5906;51.660;6.674;2022-08-19T07:10:16;21.70;99.90
11700;DHT22;5906;51.660;6.674;2022-08-19T07:12:43;22.00;99.90
11700;DHT22;5906;51.660;6.674;2022-08-19T07:15:11;22.10;1.00
11700;DHT22;5906;51.660;6.674;2022-08-19T07:17:39;22.40;99.90
11700;DHT22;5906;51.660;6.674;2022-08-19T07:20:09;22.40;99.90
11700;DHT22;5906;51.660;6.674;2022-08-19T07:22:40;22.70;99.90
11700;DHT22;5906;51.660;6.674;2022-08-19T07:25:08;22.90;99.90
11700;DHT22;5906;51.660;6.674;2022-08-19T07:27:36;23.00;99.90
11700;DHT22;5906;51.660;6.674;2022-08-19T07:30:06;23.20;99.90
11700;DHT22;5906;51.660;6.674;2022-08-19T07:32:37;23.30;1.00
11700;DHT22;5906;51.660;6.674;2022-08-19T07:35:04;23.50;72.10
11700;DHT22;5906;51.660;6.674;2022-08-19T07:37:32;23.60;1.00
11700;DHT22;5906;51.660;6.674;2022-08-19T07:40:06;23.70;99.90
11700;DHT22;5906;51.660;6.674;2022-08-19T07:42:33;23.80;99.90
11700;DHT22;5906;51.660;6.674;2022-08-19T07:45:00;24.00;1.00
11700;DHT22;5906;51.660;6.674;2022-08-19T07:47:27;24.10;1.00
11700;DHT22;5906;51.660;6.674;2022-08-19T07:50:15;24.30;1.00
11700;DHT22;5906;51.660;6.674;2022-08-19T07:52:42;24.50;99.90
11700;DHT22;5906;51.660;6.674;2022-08-19T07:55:15;24.70;99.90
11700;DHT22;5906;51.660;6.674;2022-08-19T07:58:02;24.80;99.90
11700;DHT22;5906;51.660;6.674;2022-08-19T08:00:32;24.80;1.00
11700;DHT22;5906;51.660;6.674;2022-08-19T08:02:58;24.90;1.00
11700;DHT22;5906;51.660;6.674;2022-08-19T08:05:26;24.80;1.00
11700;DHT22;5906;51.660;6.674;2022-08-19T08:08:12;24.90;1.00
11700;DHT22;5906;51.660;6.674;2022-08-19T08:10:58;25.10;1.00
11700;DHT22;5906;51.660;6.674;2022-08-19T08:13:26;25.20;99.90
11700;DHT22;5906;51.660;6.674;2022-08-19T08:15:53;25.20;99.90
11700;DHT22;5906;51.660;6.674;2022-08-19T08:18:23;25.20;99.90
11700;DHT22;5906;51.660;6.674;2022-08-19T08:20:54;25.40;99.90
11700;DHT22;5906;51.660;6.674;2022-08-19T08:23:22;25.40;99.90
11700;DHT22;5906;51.660;6.674;2022-08-19T08:25:49;25.40;1.00
11700;DHT22;5906;51.660;6.674;2022-08-19T08:28:17;25.40;99.90
11700;DHT22;5906;51.660;6.674;2022-08-19T08:30:46;25.50;1.00
11700;DHT22;5906;51.660;6.674;2022-08-19T08:33:20;25.50;1.00
11700;DHT22;5906;51.660;6.674;2022-08-19T08:36:07;25.40;99.90
11700;DHT22;5906;51.660;6.674;2022-08-19T08:38:35;25.40;1.00
11700;DHT22;5906;51.660;6.674;2022-08-19T08:41:36;25.20;99.90
11700;DHT22;5906;51.660;6.674;2022-08-19T08:44:13;25.10;1.00
11700;DHT22;5906;51.660;6.674;2022-08-19T08:46:53;25.30;99.90
11700;DHT22;5906;51.660;6.674;2022-08-19T08:49:45;25.60;99.90
11700;DHT22;5906;51.660;6.674;2022-08-19T08:52:30;26.00;37.40
11700;DHT22;5906;51.660;6.674;2022-08-19T08:55:00;26.20;1.00
11700;DHT22;5906;51.660;6.674;2022-08-19T08:57:57;26.40;99.90
11700;DHT22;5906;51.660;6.674;2022-08-19T09:00:34;26.50;99.90
11700;DHT22;5906;51.660;6.674;2022-08-19T09:03:03;26.70;99.90
11700;DHT22;5906;51.660;6.674;2022-08-19T09:05:41;26.80;99.90
11700;DHT22;5906;51.660;6.674;2022-08-19T09:14:30;27.30;99.90
11700;DHT22;5906;51.660;6.674;2022-08-19T09:17:16;27.40;99.90
11700;DHT22;5906;51.660;6.674;2022-08-19T09:20:00;27.30;99.90
11700;DHT22;5906;51.660;6.674;2022-08-19T09:22:39;27.40;99.90
11700;DHT22;5906;51.660;6.674;2022-08-19T09:25:08;27.20;99.90
11700;DHT22;5906;51.660;6.674;2022-08-19T09:27:37;27.10;99.90
11700;DHT22;5906;51.660;6.674;2022-08-19T09:30:31;27.30;99.90
11700;DHT22;5906;51.660;6.674;2022-08-19T09:32:59;27.50;99.90
11700;DHT22;5906;51.660;6.674;2022-08-19T09:35:28;27.50;99.90
11700;DHT22;5906;51.660;6.674;2022-08-19T09:37:57;27.50;99.30
11700;DHT22;5906;51.660;6.674;2022-08-19T09:40:27;27.60;99.90
11700;DHT22;5906;51.660;6.674;2022-08-19T09:42:56;27.70;99.20
11700;DHT22;5906;51.660;6.674;2022-08-19T09:45:23;27.70;99.50
11700;DHT22;5906;51.660;6.674;2022-08-19T09:47:52;27.70;99.90
11700;DHT22;5906;51.660;6.674;2022-08-19T09:50:22;27.80;99.90
11700;DHT22;5906;51.660;6.674;2022-08-19T09:52:49;28.00;98.90
11700;DHT22;5906;51.660;6.674;2022-08-19T09:55:22;28.10;98.80
11700;DHT22;5906;51.660;6.674;2022-08-19T09:57:49;28.30;97.80
11700;DHT22;5906;51.660;6.674;2022-08-19T10:00:16;28.30;96.40
11700;DHT22;5906;51.660;6.674;2022-08-19T10:02:43;28.30;95.50
11700;DHT22;5906;51.660;6.674;2022-08-19T10:05:11;28.20;95.60
11700;DHT22;5906;51.660;6.674;2022-08-19T10:07:56;28.10;95.60
11700;DHT22;5906;51.660;6.674;2022-08-19T10:10:23;27.90;97.20
11700;DHT22;5906;51.660;6.674;2022-08-19T10:12:50;27.90;99.10
11700;DHT22;5906;51.660;6.674;2022-08-19T10:15:18;27.90;97.00
11700;DHT22;5906;51.660;6.674;2022-08-19T10:17:55;28.00;98.00
11700;DHT22;5906;51.660;6.674;2022-08-19T10:20:24;28.10;96.60
11700;DHT22;5906;51.660;6.674;2022-08-19T10:22:51;28.30;99.90
11700;DHT22;5906;51.660;6.674;2022-08-19T10:25:19;28.40;99.90
11700;DHT22;5906;51.660;6.674;2022-08-19T10:27:45;28.30;99.90
11700;DHT22;5906;51.660;6.674;2022-08-19T10:30:17;28.40;99.90
11700;DHT22;5906;51.660;6.674;2022-08-19T10:32:45;28.70;99.90
11700;DHT22;5906;51.660;6.674;2022-08-19T10:35:13;29.00;94.20
11700;DHT22;5906;51.660;6.674;2022-08-19T10:37:47;28.90;92.50
11700;DHT22;5906;51.660;6.674;2022-08-19T10:40:23;29.20;91.30
11700;DHT22;5906;51.660;6.674;2022-08-19T10:42:50;29.30;87.70
11700;DHT22;5906;51.660;6.674;2022-08-19T10:45:17;29.40;90.40
11700;DHT22;5906;51.660;6.674;2022-08-19T10:47:43;29.60;89.00
11700;DHT22;5906;51.660;6.674;2022-08-19T10:50:10;29.80;80.70
11700;DHT22;5906;51.660;6.674;2022-08-19T10:52:56;29.60;81.50
11700;DHT22;5906;51.660;6.674;2022-08-19T10:55:24;29.40;79.20
11700;DHT22;5906;51.660;6.674;2022-08-19T10:58:19;29.10;91.60
11700;DHT22;5906;51.660;6.674;2022-08-19T11:00:57;28.90;99.90
11700;DHT22;5906;51.660;6.674;2022-08-19T11:03:25;29.10;83.50
11700;DHT22;5906;51.660;6.674;2022-08-19T11:06:02;29.30;77.60
11700;DHT22;5906;51.660;6.674;2022-08-19T11:08:29;29.50;77.40
11700;DHT22;5906;51.660;6.674;2022-08-19T11:10:59;29.90;70.40
11700;DHT22;5906;51.660;6.674;2022-08-19T11:13:28;30.00;64.00
11700;DHT22;5906;51.660;6.674;2022-08-19T11:15:57;30.20;65.60
11700;DHT22;5906;51.660;6.674;2022-08-19T11:18:28;30.40;62.20
11700;DHT22;5906;51.660;6.674;2022-08-19T11:20:55;30.40;56.40
11700;DHT22;5906;51.660;6.674;2022-08-19T11:23:31;30.40;55.90
11700;DHT22;5906;51.660;6.674;2022-08-19T11:25:58;30.20;52.50
11700;DHT22;5906;51.660;6.674;2022-08-19T11:28:25;30.20;49.70
11700;DHT22;5906;51.660;6.674;2022-08-19T11:30:52;30.40;49.60
11700;DHT22;5906;51.660;6.674;2022-08-19T11:33:19;30.40;47.80
11700;DHT22;5906;51.660;6.674;2022-08-19T11:35:46;30.30;46.80
11700;DHT22;5906;51.660;6.674;2022-08-19T11:38:12;30.30;46.70
11700;DHT22;5906;51.660;6.674;2022-08-19T11:40:41;30.30;46.50
11700;DHT22;5906;51.660;6.674;2022-08-19T11:43:08;30.20;42.30
11700;DHT22;5906;51.660;6.674;2022-08-19T11:45:36;30.30;44.40
11700;DHT22;5906;51.660;6.674;2022-08-19T11:48:03;30.20;46.20
11700;DHT22;5906;51.660;6.674;2022-08-19T11:50:29;30.40;47.50
11700;DHT22;5906;51.660;6.674;2022-08-19T11:52:56;30.40;48.30
11700;DHT22;5906;51.660;6.674;2022-08-19T11:55:23;30.30;47.00
11700;DHT22;5906;51.660;6.674;2022-08-19T11:57:50;30.50;46.90
11700;DHT22;5906;51.660;6.674;2022-08-19T12:00:17;30.60;50.30
11700;DHT22;5906;51.660;6.674;2022-08-19T12:02:44;30.80;45.20
11700;DHT22;5906;51.660;6.674;2022-08-19T12:05:11;31.00;51.90
11700;DHT22;5906;51.660;6.674;2022-08-19T12:07:39;31.00;46.70
11700;DHT22;5906;51.660;6.674;2022-08-19T12:10:08;31.20;42.90
11700;DHT22;5906;51.660;6.674;2022-08-19T12:12:37;31.10;42.90
11700;DHT22;5906;51.660;6.674;2022-08-19T12:15:10;30.70;44.20
11700;DHT22;5906;51.660;6.674;2022-08-19T12:17:37;30.70;42.00
11700;DHT22;5906;51.660;6.674;2022-08-19T12:20:05;31.00;42.20
11700;DHT22;5906;51.660;6.674;2022-08-19T12:22:32;31.10;43.70
11700;DHT22;5906;51.660;6.674;2022-08-19T12:24:59;31.10;41.20
11700;DHT22;5906;51.660;6.674;2022-08-19T12:27:27;31.20;41.80
11700;DHT22;5906;51.660;6.674;2022-08-19T12:30:09;31.20;41.70
11700;DHT22;5906;51.660;6.674;2022-08-19T12:32:37;31.10;43.30
11700;DHT22;5906;51.660;6.674;2022-08-19T12:35:04;31.00;40.30
11700;DHT22;5906;51.660;6.674;2022-08-19T12:37:31;31.10;43.20
11700;DHT22;5906;51.660;6.674;2022-08-19T12:39:58;31.20;39.90
11700;DHT22;5906;51.660;6.674;2022-08-19T12:42:25;31.20;41.20
11700;DHT22;5906;51.660;6.674;2022-08-19T12:44:52;31.20;40.00
11700;DHT22;5906;51.660;6.674;2022-08-19T12:47:19;31.10;41.80
11700;DHT22;5906;51.660;6.674;2022-08-19T12:49:48;31.00;36.20
11700;DHT22;5906;51.660;6.674;2022-08-19T12:52:25;31.00;38.10
11700;DHT22;5906;51.660;6.674;2022-08-19T12:54:55;31.00;41.10
11700;DHT22;5906;51.660;6.674;2022-08-19T12:57:24;31.00;37.40
11700;DHT22;5906;51.660;6.674;2022-08-19T13:00:03;31.00;39.40
11700;DHT22;5906;51.660;6.674;2022-08-19T13:02:32;30.80;41.40
11700;DHT22;5906;51.660;6.674;2022-08-19T13:05:05;30.60;59.40
11700;DHT22;5906;51.660;6.674;2022-08-19T13:07:33;30.70;53.20
11700;DHT22;5906;51.660;6.674;2022-08-19T13:10:00;30.80;97.90
11700;DHT22;5906;51.660;6.674;2022-08-19T13:12:27;31.00;84.50
11700;DHT22;5906;51.660;6.674;2022-08-19T13:14:55;31.10;92.80
11700;DHT22;5906;51.660;6.674;2022-08-19T13:17:22;31.10;41.20
11700;DHT22;5906;51.660;6.674;2022-08-19T13:19:49;30.70;40.90
11700;DHT22;5906;51.660;6.674;2022-08-19T13:22:17;30.60;43.70
11700;DHT22;5906;51.660;6.674;2022-08-19T13:24:44;30.40;44.10
11700;DHT22;5906;51.660;6.674;2022-08-19T13:27:13;30.40;43.70
11700;DHT22;5906;51.660;6.674;2022-08-19T13:29:41;30.30;44.70
11700;DHT22;5906;51.660;6.674;2022-08-19T13:32:26;30.40;44.70
11700;DHT22;5906;51.660;6.674;2022-08-19T13:35:15;30.40;45.00
11700;DHT22;5906;51.660;6.674;2022-08-19T13:37:43;30.30;43.30
11700;DHT22;5906;51.660;6.674;2022-08-19T13:40:16;30.40;44.60
11700;DHT22;5906;51.660;6.674;2022-08-19T13:42:47;30.50;43.90
11700;DHT22;5906;51.660;6.674;2022-08-19T13:45:16;30.60;42.50
11700;DHT22;5906;51.660;6.674;2022-08-19T13:47:46;30.60;45.50
11700;DHT22;5906;51.660;6.674;2022-08-19T13:50:16;30.70;43.40
11700;DHT22;5906;51.660;6.674;2022-08-19T13:52:43;30.70;43.70
11700;DHT22;5906;51.660;6.674;2022-08-19T13:55:11;30.70;42.60
11700;DHT22;5906;51.660;6.674;2022-08-19T13:57:38;30.90;43.00
11700;DHT22;5906;51.660;6.674;2022-08-19T14:00:16;30.70;40.70
11700;DHT22;5906;51.660;6.674;2022-08-19T14:02:47;30.60;40.10
11700;DHT22;5906;51.660;6.674;2022-08-19T14:05:15;30.60;38.70
11700;DHT22;5906;51.660;6.674;2022-08-19T14:07:42;30.50;37.70
11700;DHT22;5906;51.660;6.674;2022-08-19T14:10:10;30.30;38.90
11700;DHT22;5906;51.660;6.674;2022-08-19T14:12:38;30.30;39.90
11700;DHT22;5906;51.660;6.674;2022-08-19T14:15:07;30.20;40.50
11700;DHT22;5906;51.660;6.674;2022-08-19T14:17:34;30.10;39.60
11700;DHT22;5906;51.660;6.674;2022-08-19T14:20:04;30.10;39.10
11700;DHT22;5906;51.660;6.674;2022-08-19T14:22:38;30.10;38.20
11700;DHT22;5906;51.660;6.674;2022-08-19T14:25:08;30.10;36.10
11700;DHT22;5906;51.660;6.674;2022-08-19T14:27:36;30.20;36.70
11700;DHT22;5906;51.660;6.674;2022-08-19T14:30:05;30.20;35.80
11700;DHT22;5906;51.660;6.674;2022-08-19T14:32:34;30.00;35.50
11700;DHT22;5906;51.660;6.674;2022-08-19T14:35:01;29.90;37.10
11700;DHT22;5906;51.660;6.674;2022-08-19T14:37:28;29.70;36.50
11700;DHT22;5906;51.660;6.674;2022-08-19T14:39:55;29.90;37.40
11700;DHT22;5906;51.660;6.674;2022-08-19T14:42:22;29.90;41.20
11700;DHT22;5906;51.660;6.674;2022-08-19T14:44:48;30.00;39.70
11700;DHT22;5906;51.660;6.674;2022-08-19T14:47:15;30.00;40.90
11700;DHT22;5906;51.660;6.674;2022-08-19T14:49:42;29.80;40.00
11700;DHT22;5906;51.660;6.674;2022-08-19T14:52:14;29.80;42.00
11700;DHT22;5906;51.660;6.674;2022-08-19T14:54:40;29.80;41.50
11700;DHT22;5906;51.660;6.674;2022-08-19T14:57:11;29.90;42.40
11700;DHT22;5906;51.660;6.674;2022-08-19T14:59:38;29.70;42.40
11700;DHT22;5906;51.660;6.674;2022-08-19T15:02:05;29.60;39.80
11700;DHT22;5906;51.660;6.674;2022-08-19T15:04:52;29.70;40.30
11700;DHT22;5906;51.660;6.674;2022-08-19T15:07:24;29.60;40.70
11700;DHT22;5906;51.660;6.674;2022-08-19T15:09:55;29.60;42.20
11700;DHT22;5906;51.660;6.674;2022-08-19T15:12:22;29.80;47.50
11700;DHT22;5906;51.660;6.674;2022-08-19T15:14:49;29.70;50.00
11700;DHT22;5906;51.660;6.674;2022-08-19T15:17:21;29.70;47.80
11700;DHT22;5906;51.660;6.674;2022-08-19T15:20:09;29.50;51.70
11700;DHT22;5906;51.660;6.674;2022-08-19T15:22:36;29.30;52.80
11700;DHT22;5906;51.660;6.674;2022-08-19T15:25:05;29.20;52.00
11700;DHT22;5906;51.660;6.674;2022-08-19T15:27:33;29.10;55.50
11700;DHT22;5906;51.660;6.674;2022-08-19T15:30:02;28.90;56.40
11700;DHT22;5906;51.660;6.674;2022-08-19T15:32:29;28.70;58.10
11700;DHT22;5906;51.660;6.674;2022-08-19T15:34:56;28.70;58.90
11700;DHT22;5906;51.660;6.674;2022-08-19T15:37:23;28.50;56.30
11700;DHT22;5906;51.660;6.674;2022-08-19T15:39:50;28.50;61.80
11700;DHT22;5906;51.660;6.674;2022-08-19T15:42:17;28.50;59.50
11700;DHT22;5906;51.660;6.674;2022-08-19T15:44:55;28.40;63.00
11700;DHT22;5906;51.660;6.674;2022-08-19T15:47:28;28.40;62.80
11700;DHT22;5906;51.660;6.674;2022-08-19T15:50:18;28.40;64.50
11700;DHT22;5906;51.660;6.674;2022-08-19T15:52:52;28.50;67.70
11700;DHT22;5906;51.660;6.674;2022-08-19T15:55:21;28.40;94.30
11700;DHT22;5906;51.660;6.674;2022-08-19T15:58:09;28.30;82.70
11700;DHT22;5906;51.660;6.674;2022-08-19T16:01:04;28.20;90.30
11700;DHT22;5906;51.660;6.674;2022-08-19T16:03:54;28.40;90.30
11700;DHT22;5906;51.660;6.674;2022-08-19T16:06:47;28.60;76.60
11700;DHT22;5906;51.660;6.674;2022-08-19T16:09:15;28.70;75.30
11700;DHT22;5906;51.660;6.674;2022-08-19T16:11:43;28.80;83.40
11700;DHT22;5906;51.660;6.674;2022-08-19T16:14:13;28.90;78.20
11700;DHT22;5906;51.660;6.674;2022-08-19T16:16:40;28.80;75.40
11700;DHT22;5906;51.660;6.674;2022-08-19T16:19:08;28.60;75.90
11700;DHT22;5906;51.660;6.674;2022-08-19T16:21:38;28.60;75.20
11700;DHT22;5906;51.660;6.674;2022-08-19T16:24:08;28.70;86.00